Yushun — JD3877 — position and weather

sailwx.info

Track history (hours):
 
Tides and Currents Weather Stations Pressure Air Temp Water Temp Dewpoint Dewpoint Depression Visibility Wind Speed Wind Dir Waves Ship Positions

Yushun

Last reported at 2017-Oct-13 13:20 UTC. Time now 2017-Oct-17 22:28 UTC.
Position N 34°53' E 139°49'.

Length 63 m; draft 4 m.

Type: Tanker. MMSI: 431006555.

Date/timePositionNaut miles runAvg speedWind from/ knotsBaromVisibWave heightAir tempDewpointWater temp
2017-Oct-13 13:20N 34°53' E 139°49'513.5
2017-Oct-13 12:59N 34°56' E 139°45'612.4
2017-Oct-13 12:30N 35°02' E 139°43'612.2
2017-Oct-13 12:00N 35°08' E 139°45'612.7
2017-Oct-13 11:30N 35°14' E 139°46'611.8
2017-Oct-13 11:00N 35°19' E 139°43'611.1
2017-Oct-13 10:30N 35°25' E 139°43'612.1
2017-Oct-13 10:00N 35°28' E 139°49'7 0.7
2017-Oct-12 23:08N 35°30' E 139°58'311.1
2017-Oct-12 22:53N 35°29' E 139°55'0 0.2
2017-Oct-12 21:13N 35°29' E 139°55'0 0.0
2017-Oct-12 20:49N 35°29' E 139°55'0 0.0
2017-Oct-12 20:19N 35°29' E 139°55'0 0.0
2017-Oct-12 19:37N 35°29' E 139°55'0 0.0
2017-Oct-12 19:19N 35°29' E 139°55'0 0.0
2017-Oct-12 16:46N 35°29' E 139°55'0 0.0
2017-Oct-12 16:19N 35°29' E 139°55'0 0.0
2017-Oct-12 13:55N 35°29' E 139°55'0 0.4
2017-Oct-12 13:17N 35°29' E 139°55'411.2
2017-Oct-12 12:57N 35°27' E 139°51'512.2
2017-Oct-12 12:31N 35°23' E 139°46'611.5
2017-Oct-12 12:01N 35°18' E 139°45'611.4
2017-Oct-12 11:29N 35°12' E 139°47'612.1
2017-Oct-12 11:00N 35°06' E 139°46'612.3
2017-Oct-12 10:30N 35°00' E 139°44'610.5
2017-Oct-12 09:57N 34°55' E 139°47'  
2017-Oct-09 14:05N 34°53' E 139°48'212.4
2017-Oct-09 13:58N 34°54' E 139°47'613.4
2017-Oct-09 13:29N 34°59' E 139°43'612.0
2017-Oct-09 13:00N 35°05' E 139°44'611.6
2017-Oct-09 12:30N 35°10' E 139°46'612.0
2017-Oct-09 12:00N 35°16' E 139°46'712.1
2017-Oct-09 11:25N 35°23' E 139°42'612.0
2017-Oct-09 10:55N 35°28' E 139°46'1 2.1
2017-Oct-09 10:30N 35°29' E 139°46'0 0.0
2017-Oct-09 10:00N 35°29' E 139°46'0 0.0
2017-Oct-09 09:30N 35°29' E 139°46'0 0.0
2017-Oct-09 09:00N 35°29' E 139°46'0 0.0
2017-Oct-09 08:30N 35°29' E 139°46'0 0.0
2017-Oct-09 08:00N 35°29' E 139°46'0 0.0
2017-Oct-09 07:30N 35°29' E 139°46'0 0.0
2017-Oct-09 07:00N 35°29' E 139°46'0 0.0
2017-Oct-09 02:22N 35°29' E 139°46'2 0.5
2017-Oct-08 22:39N 35°31' E 139°46'2 8.2
2017-Oct-08 22:26N 35°30' E 139°48'3 5.8
2017-Oct-08 21:54N 35°27' E 139°47'810.0
2017-Oct-08 21:08N 35°20' E 139°44'110.2
2017-Oct-08 21:00N 35°18' E 139°44'510.4
2017-Oct-08 20:30N 35°14' E 139°47'510.0
2017-Oct-08 20:00N 35°09' E 139°46'5 8.9
2017-Oct-08 19:30N 35°05' E 139°43'4 9.0
2017-Oct-08 19:00N 35°02' E 139°39'4 8.7
2017-Oct-08 18:30N 34°59' E 139°35'5 9.4
2017-Oct-08 17:59N 34°56' E 139°30'  
2017-Oct-05 04:23N 34°06' E 135°01'512.6
2017-Oct-05 04:00N 34°10' E 135°02'713.0
2017-Oct-05 03:28N 34°17' E 135°03'1012.9
2017-Oct-05 02:41N 34°26' E 135°09'412.7
2017-Oct-05 02:23N 34°29' E 135°13'712.4
2017-Oct-05 01:51N 34°33' E 135°18'412.4
2017-Oct-05 01:29N 34°37' E 135°22'5 8.7
2017-Oct-05 00:55N 34°38' E 135°28'0 0.0
2017-Oct-05 00:28N 34°38' E 135°28'0 0.0
2017-Oct-04 23:59N 34°38' E 135°28'0 0.0
2017-Oct-04 23:30N 34°38' E 135°28'0 0.0
2017-Oct-04 23:00N 34°38' E 135°28'0 0.0
2017-Oct-04 22:30N 34°38' E 135°28'0 0.4
2017-Oct-04 22:00N 34°38' E 135°28'2 4.2
2017-Oct-04 21:29N 34°40' E 135°26'1 1.5
2017-Oct-04 21:00N 34°40' E 135°27'0 0.0
2017-Oct-04 20:30N 34°40' E 135°27'0 0.0
2017-Oct-04 20:00N 34°40' E 135°27'0 0.0
2017-Oct-04 19:30N 34°40' E 135°27'0 0.0
2017-Oct-04 19:00N 34°40' E 135°27'0 0.0
2017-Oct-04 18:30N 34°40' E 135°27'0 0.0
2017-Oct-04 18:00N 34°40' E 135°27'0 0.0
2017-Oct-04 17:30N 34°40' E 135°27'0 0.0
2017-Oct-04 17:00N 34°40' E 135°27'0 0.0
2017-Oct-04 16:30N 34°40' E 135°27'0 0.0
2017-Oct-04 16:00N 34°40' E 135°27'0 0.0
2017-Oct-04 15:30N 34°40' E 135°27'0 0.0
2017-Oct-04 15:00N 34°40' E 135°27'0 0.0
2017-Oct-04 14:30N 34°40' E 135°27'0 0.0
2017-Oct-04 14:00N 34°40' E 135°27'0 0.0
2017-Oct-04 13:30N 34°40' E 135°27'0 0.0
2017-Oct-04 12:59N 34°40' E 135°27'0 0.0
2017-Oct-04 12:29N 34°40' E 135°27'0 0.0
2017-Oct-04 12:00N 34°40' E 135°27'0 0.0
2017-Oct-04 11:30N 34°40' E 135°27'0 0.0
2017-Oct-04 11:00N 34°40' E 135°27'0 0.0
2017-Oct-04 10:30N 34°40' E 135°27'0 0.0
2017-Oct-04 10:00N 34°40' E 135°27'0 0.0
2017-Oct-04 09:30N 34°40' E 135°27'0 0.0
2017-Oct-04 09:00N 34°40' E 135°27'0 0.0
2017-Oct-04 08:30N 34°40' E 135°27'0 0.0
2017-Oct-04 08:00N 34°40' E 135°27'0 0.0
2017-Oct-04 07:30N 34°40' E 135°27'0 0.0
2017-Oct-04 07:00N 34°40' E 135°27'0 0.0
2017-Oct-04 06:30N 34°40' E 135°27'0 0.0
2017-Oct-04 06:00N 34°40' E 135°27'0 0.0
2017-Oct-04 05:30N 34°40' E 135°27'0 0.0
2017-Oct-04 05:00N 34°40' E 135°27'0 0.0
2017-Oct-04 04:29N 34°40' E 135°27'0 0.0
2017-Oct-04 04:00N 34°40' E 135°27'0 0.0
2017-Oct-04 03:29N 34°40' E 135°27'0 0.0
2017-Oct-04 02:57N 34°40' E 135°27'3 7.7
2017-Oct-04 02:30N 34°38' E 135°23'510.7
2017-Oct-04 02:00N 34°36' E 135°18'611.2
2017-Oct-04 01:30N 34°35' E 135°11'611.9
2017-Oct-04 01:00N 34°35' E 135°04'  
Track history (hours):
 
Tides and Currents Weather Stations Pressure Air Temp Water Temp Dewpoint Dewpoint Depression Visibility Wind Speed Wind Dir Waves Ship Positions

Yushun

Last reported at 2017-Oct-13 13:20 UTC. Time now 2017-Oct-17 22:28 UTC.
Position N 34°53' E 139°49'.

Length 63 m; draft 4 m.

Type: Tanker. MMSI: 431006555.

Date/timePositionNaut miles runAvg speedWind from/ knotsBaromVisibWave heightAir tempDewpointWater temp
2017-Oct-13 13:20N 34°53' E 139°49'513.5
2017-Oct-13 12:59N 34°56' E 139°45'612.4
2017-Oct-13 12:30N 35°02' E 139°43'612.2
2017-Oct-13 12:00N 35°08' E 139°45'612.7
2017-Oct-13 11:30N 35°14' E 139°46'611.8
2017-Oct-13 11:00N 35°19' E 139°43'611.1
2017-Oct-13 10:30N 35°25' E 139°43'612.1
2017-Oct-13 10:00N 35°28' E 139°49'7 0.7
2017-Oct-12 23:08N 35°30' E 139°58'311.1
2017-Oct-12 22:53N 35°29' E 139°55'0 0.2
2017-Oct-12 21:13N 35°29' E 139°55'0 0.0
2017-Oct-12 20:49N 35°29' E 139°55'0 0.0
2017-Oct-12 20:19N 35°29' E 139°55'0 0.0
2017-Oct-12 19:37N 35°29' E 139°55'0 0.0
2017-Oct-12 19:19N 35°29' E 139°55'0 0.0
2017-Oct-12 16:46N 35°29' E 139°55'0 0.0
2017-Oct-12 16:19N 35°29' E 139°55'0 0.0
2017-Oct-12 13:55N 35°29' E 139°55'0 0.4
2017-Oct-12 13:17N 35°29' E 139°55'411.2
2017-Oct-12 12:57N 35°27' E 139°51'512.2
2017-Oct-12 12:31N 35°23' E 139°46'611.5
2017-Oct-12 12:01N 35°18' E 139°45'611.4
2017-Oct-12 11:29N 35°12' E 139°47'612.1
2017-Oct-12 11:00N 35°06' E 139°46'612.3
2017-Oct-12 10:30N 35°00' E 139°44'610.5
2017-Oct-12 09:57N 34°55' E 139°47'  
2017-Oct-09 14:05N 34°53' E 139°48'212.4
2017-Oct-09 13:58N 34°54' E 139°47'613.4
2017-Oct-09 13:29N 34°59' E 139°43'612.0
2017-Oct-09 13:00N 35°05' E 139°44'611.6
2017-Oct-09 12:30N 35°10' E 139°46'612.0
2017-Oct-09 12:00N 35°16' E 139°46'712.1
2017-Oct-09 11:25N 35°23' E 139°42'612.0
2017-Oct-09 10:55N 35°28' E 139°46'1 2.1
2017-Oct-09 10:30N 35°29' E 139°46'0 0.0
2017-Oct-09 10:00N 35°29' E 139°46'0 0.0
2017-Oct-09 09:30N 35°29' E 139°46'0 0.0
2017-Oct-09 09:00N 35°29' E 139°46'0 0.0
2017-Oct-09 08:30N 35°29' E 139°46'0 0.0
2017-Oct-09 08:00N 35°29' E 139°46'0 0.0
2017-Oct-09 07:30N 35°29' E 139°46'0 0.0
2017-Oct-09 07:00N 35°29' E 139°46'0 0.0
2017-Oct-09 02:22N 35°29' E 139°46'2 0.5
2017-Oct-08 22:39N 35°31' E 139°46'2 8.2
2017-Oct-08 22:26N 35°30' E 139°48'3 5.8
2017-Oct-08 21:54N 35°27' E 139°47'810.0
2017-Oct-08 21:08N 35°20' E 139°44'110.2
2017-Oct-08 21:00N 35°18' E 139°44'510.4
2017-Oct-08 20:30N 35°14' E 139°47'510.0
2017-Oct-08 20:00N 35°09' E 139°46'5 8.9
2017-Oct-08 19:30N 35°05' E 139°43'4 9.0
2017-Oct-08 19:00N 35°02' E 139°39'4 8.7
2017-Oct-08 18:30N 34°59' E 139°35'5 9.4
2017-Oct-08 17:59N 34°56' E 139°30'  
2017-Oct-05 04:23N 34°06' E 135°01'512.6
2017-Oct-05 04:00N 34°10' E 135°02'713.0
2017-Oct-05 03:28N 34°17' E 135°03'1012.9
2017-Oct-05 02:41N 34°26' E 135°09'412.7
2017-Oct-05 02:23N 34°29' E 135°13'712.4
2017-Oct-05 01:51N 34°33' E 135°18'412.4
2017-Oct-05 01:29N 34°37' E 135°22'5 8.7
2017-Oct-05 00:55N 34°38' E 135°28'0 0.0
2017-Oct-05 00:28N 34°38' E 135°28'0 0.0
2017-Oct-04 23:59N 34°38' E 135°28'0 0.0
2017-Oct-04 23:30N 34°38' E 135°28'0 0.0
2017-Oct-04 23:00N 34°38' E 135°28'0 0.0
2017-Oct-04 22:30N 34°38' E 135°28'0 0.4
2017-Oct-04 22:00N 34°38' E 135°28'2 4.2
2017-Oct-04 21:29N 34°40' E 135°26'1 1.5
2017-Oct-04 21:00N 34°40' E 135°27'0 0.0
2017-Oct-04 20:30N 34°40' E 135°27'0 0.0
2017-Oct-04 20:00N 34°40' E 135°27'0 0.0
2017-Oct-04 19:30N 34°40' E 135°27'0 0.0
2017-Oct-04 19:00N 34°40' E 135°27'0 0.0
2017-Oct-04 18:30N 34°40' E 135°27'0 0.0
2017-Oct-04 18:00N 34°40' E 135°27'0 0.0
2017-Oct-04 17:30N 34°40' E 135°27'0 0.0
2017-Oct-04 17:00N 34°40' E 135°27'0 0.0
2017-Oct-04 16:30N 34°40' E 135°27'0 0.0
2017-Oct-04 16:00N 34°40' E 135°27'0 0.0
2017-Oct-04 15:30N 34°40' E 135°27'0 0.0
2017-Oct-04 15:00N 34°40' E 135°27'0 0.0
2017-Oct-04 14:30N 34°40' E 135°27'0 0.0
2017-Oct-04 14:00N 34°40' E 135°27'0 0.0
2017-Oct-04 13:30N 34°40' E 135°27'0 0.0
2017-Oct-04 12:59N 34°40' E 135°27'0 0.0
2017-Oct-04 12:29N 34°40' E 135°27'0 0.0
2017-Oct-04 12:00N 34°40' E 135°27'0 0.0
2017-Oct-04 11:30N 34°40' E 135°27'0 0.0
2017-Oct-04 11:00N 34°40' E 135°27'0 0.0
2017-Oct-04 10:30N 34°40' E 135°27'0 0.0
2017-Oct-04 10:00N 34°40' E 135°27'0 0.0
2017-Oct-04 09:30N 34°40' E 135°27'0 0.0
2017-Oct-04 09:00N 34°40' E 135°27'0 0.0
2017-Oct-04 08:30N 34°40' E 135°27'0 0.0
2017-Oct-04 08:00N 34°40' E 135°27'0 0.0
2017-Oct-04 07:30N 34°40' E 135°27'0 0.0
2017-Oct-04 07:00N 34°40' E 135°27'0 0.0
2017-Oct-04 06:30N 34°40' E 135°27'0 0.0
2017-Oct-04 06:00N 34°40' E 135°27'0 0.0
2017-Oct-04 05:30N 34°40' E 135°27'0 0.0
2017-Oct-04 05:00N 34°40' E 135°27'0 0.0
2017-Oct-04 04:29N 34°40' E 135°27'0 0.0
2017-Oct-04 04:00N 34°40' E 135°27'0 0.0
2017-Oct-04 03:29N 34°40' E 135°27'0 0.0
2017-Oct-04 02:57N 34°40' E 135°27'3 7.7
2017-Oct-04 02:30N 34°38' E 135°23'510.7
2017-Oct-04 02:00N 34°36' E 135°18'611.2
2017-Oct-04 01:30N 34°35' E 135°11'611.9
2017-Oct-04 01:00N 34°35' E 135°04'  

Dump ship's entire track history